Time;durP1;ratioP1;P1;durP2;ratioP2;P2;SDS_P1;SDS_P2;PMS_P1;PMS_P2;Temp;Humidity;BMP_temperature;BMP_pressure;BME280_temperature;BME280_humidity;BME280_pressure;Samples;Min_cycle;Max_cycle;Signal;HPM_P1;HPM_P2
2024/04/02 00:00:43;;;;;;;0.45;0.10;;;8.70;99.90;;;;;;4996409;28;20390;-80
2024/04/02 00:03:12;;;;;;;1.45;0.00;;;8.60;99.90;;;;;;4998940;28;20110;-80
2024/04/02 00:05:39;;;;;;;1.92;0.00;;;8.60;99.90;;;;;;4995621;28;20037;-78
2024/04/02 00:08:06;;;;;;;1.00;0.10;;;8.60;99.90;;;;;;4995648;28;20027;-80
2024/04/02 00:10:36;;;;;;;3.13;0.10;;;8.60;99.90;;;;;;4994980;28;20034;-78
2024/04/02 00:13:02;;;;;;;2.63;0.00;;;8.60;99.90;;;;;;4995386;28;20501;-75
2024/04/02 00:15:28;;;;;;;1.13;0.03;;;8.60;99.90;;;;;;4994313;28;20034;-79
2024/04/02 00:17:54;;;;;;;0.88;0.00;;;8.60;99.90;;;;;;4996564;28;20034;-78
2024/04/02 00:20:21;;;;;;;1.35;0.22;;;8.70;99.90;;;;;;4995168;28;20065;-80
2024/04/02 00:22:46;;;;;;;1.50;0.10;;;8.60;99.90;;;;;;4996225;28;20030;-80
2024/04/02 00:25:12;;;;;;;0.70;0.05;;;8.60;99.90;;;;;;4996279;28;20030;-80
2024/04/02 00:27:38;;;;;;;3.03;0.35;;;8.50;99.90;;;;;;4994461;28;20023;-80
2024/04/02 00:30:05;;;;;;;0.30;0.08;;;8.50;99.90;;;;;;4994997;28;20073;-78
2024/04/02 00:32:31;;;;;;;1.80;0.03;;;8.40;99.90;;;;;;4996380;28;20022;-78
2024/04/02 00:34:57;;;;;;;0.10;0.00;;;8.30;99.90;;;;;;4995121;28;20037;-78
2024/04/02 00:37:23;;;;;;;3.80;0.50;;;8.20;99.90;;;;;;4995464;28;20117;-80
2024/04/02 00:39:49;;;;;;;1.27;0.00;;;8.20;99.90;;;;;;4996230;28;20054;-79
2024/04/02 00:42:14;;;;;;;2.95;0.00;;;8.20;99.90;;;;;;4994295;28;20037;-81
2024/04/02 00:44:40;;;;;;;1.38;0.00;;;8.20;99.90;;;;;;4995604;28;20030;-80
2024/04/02 00:47:09;;;;;;;0.10;0.10;;;8.20;99.90;;;;;;4994849;28;20052;-80
2024/04/02 00:49:36;;;;;;;0.20;0.10;;;8.20;99.90;;;;;;4995842;28;20027;-78
2024/04/02 00:52:03;;;;;;;1.98;0.00;;;8.20;99.90;;;;;;4994624;28;20057;-75
2024/04/02 00:54:31;;;;;;;1.35;0.20;;;8.00;99.90;;;;;;4994991;28;20539;-77
2024/04/02 00:56:57;;;;;;;0.57;0.00;;;8.00;99.90;;;;;;4996707;28;20019;-78
2024/04/02 00:59:24;;;;;;;2.15;0.45;;;8.00;99.90;;;;;;4996049;28;20042;-80
2024/04/02 01:01:50;;;;;;;2.88;0.00;;;8.00;99.90;;;;;;4994311;28;20053;-80
2024/04/02 01:04:19;;;;;;;0.30;0.00;;;8.00;99.90;;;;;;4995564;28;20086;-81
2024/04/02 01:06:45;;;;;;;;;;;8.00;99.90;;;;;;4996701;28;20045;-81
2024/04/02 01:09:12;;;;;;;0.95;0.00;;;8.10;99.90;;;;;;4996213;28;20281;-80
2024/04/02 01:11:39;;;;;;;2.40;0.00;;;8.60;99.90;;;;;;4994858;28;20053;-80
2024/04/02 01:14:05;;;;;;;0.57;0.00;;;8.00;99.90;;;;;;4995544;28;20027;-79
2024/04/02 01:16:30;;;;;;;1.65;0.00;;;8.00;99.90;;;;;;4994174;28;20077;-77
2024/04/02 01:18:57;;;;;;;1.48;0.10;;;8.00;99.90;;;;;;4993946;28;20050;-77
2024/04/02 01:21:25;;;;;;;0.68;0.10;;;8.00;99.90;;;;;;4996132;28;20045;-78
2024/04/02 01:23:50;;;;;;;0.90;0.05;;;8.00;99.90;;;;;;4997870;28;20492;-79
2024/04/02 01:26:16;;;;;;;0.75;0.00;;;8.00;99.90;;;;;;4993811;28;20026;-79
2024/04/02 01:28:41;;;;;;;1.65;0.00;;;7.90;99.90;;;;;;4992348;28;20011;-80
2024/04/02 01:31:07;;;;;;;0.30;0.00;;;9.40;99.90;;;;;;4991919;28;20029;-78
2024/04/02 01:33:32;;;;;;;1.63;0.00;;;7.90;99.90;;;;;;4991963;28;20477;-77
2024/04/02 01:35:59;;;;;;;0.13;0.00;;;8.00;99.90;;;;;;4992725;28;20397;-79
2024/04/02 01:38:25;;;;;;;1.48;0.00;;;8.00;99.90;;;;;;4993593;28;20031;-78
2024/04/02 01:40:51;;;;;;;0.13;0.00;;;8.00;99.90;;;;;;4991647;28;20030;-78
2024/04/02 01:43:18;;;;;;;2.10;0.00;;;8.00;99.90;;;;;;4991752;28;20022;-79
2024/04/02 01:45:44;;;;;;;0.75;0.00;;;7.90;99.90;;;;;;4993627;28;20124;-78
2024/04/02 01:48:10;;;;;;;0.95;0.00;;;7.90;99.90;;;;;;4992898;28;20054;-77
2024/04/02 01:50:35;;;;;;;0.38;0.10;;;7.90;99.90;;;;;;4994417;28;20022;-78
2024/04/02 01:53:01;;;;;;;0.20;0.00;;;7.80;99.90;;;;;;4993124;28;20402;-78
2024/04/02 01:55:27;;;;;;;0.45;0.00;;;7.70;99.90;;;;;;4993890;28;20030;-77
2024/04/02 01:57:53;;;;;;;1.85;0.10;;;7.60;99.90;;;;;;4995480;28;20297;-78
2024/04/02 02:00:18;;;;;;;1.77;0.00;;;7.80;99.90;;;;;;4993855;28;20042;-78
2024/04/02 02:02:44;;;;;;;0.98;0.00;;;7.60;99.90;;;;;;4993778;28;20037;-79
2024/04/02 02:05:10;;;;;;;0.35;0.20;;;7.50;99.90;;;;;;4992854;28;20386;-78
2024/04/02 02:07:38;;;;;;;0.32;0.20;;;7.50;99.90;;;;;;4993466;28;20050;-78
2024/04/02 02:10:04;;;;;;;1.38;0.00;;;7.40;99.90;;;;;;4993034;28;20042;-77
2024/04/02 02:12:31;;;;;;;3.20;0.00;;;7.50;99.90;;;;;;4994063;28;20540;-78
2024/04/02 02:14:57;;;;;;;0.35;0.10;;;7.40;99.90;;;;;;4993150;28;20026;-77
2024/04/02 02:17:23;;;;;;;3.00;0.10;;;7.40;99.90;;;;;;4994330;28;20100;-79
2024/04/02 02:19:48;;;;;;;1.05;0.15;;;7.40;99.90;;;;;;4993026;28;20026;-78
2024/04/02 02:22:14;;;;;;;0.63;0.03;;;7.30;99.90;;;;;;4994676;28;20457;-78
2024/04/02 02:24:39;;;;;;;0.68;0.20;;;7.30;99.90;;;;;;4992839;28;20077;-78
2024/04/02 02:27:05;;;;;;;0.47;0.10;;;7.30;99.90;;;;;;4993640;28;20030;-78
2024/04/02 02:29:31;;;;;;;0.70;0.30;;;7.30;99.90;;;;;;4992754;28;20081;-78
2024/04/02 02:31:59;;;;;;;1.70;0.10;;;7.30;99.90;;;;;;4993953;28;20441;-78
2024/04/02 02:34:25;;;;;;;1.42;0.30;;;7.30;99.90;;;;;;4992864;28;20030;-78
2024/04/02 02:36:51;;;;;;;1.60;0.57;;;7.30;99.90;;;;;;4993089;28;20048;-79
2024/04/02 02:39:17;;;;;;;0.95;0.32;;;7.30;99.90;;;;;;4993821;28;20038;-82
2024/04/02 02:41:46;;;;;;;2.55;0.65;;;7.70;99.90;;;;;;5000464;28;20027;-81
2024/04/02 02:44:12;;;;;;;1.10;0.20;;;7.30;99.90;;;;;;5004204;28;20034;-82
2024/04/02 02:46:38;;;;;;;2.88;0.10;;;7.40;99.90;;;;;;5003967;28;20018;-82
2024/04/02 02:49:03;;;;;;;5.55;0.47;;;7.30;99.90;;;;;;5005002;28;20041;-82
2024/04/02 02:51:29;;;;;;;2.60;0.40;;;8.00;99.90;;;;;;5003491;28;20018;-84
2024/04/02 02:53:55;;;;;;;2.17;0.22;;;7.30;99.90;;;;;;5005739;28;20033;-82
2024/04/02 02:56:22;;;;;;;2.90;0.25;;;7.20;99.90;;;;;;5004310;28;20049;-81
2024/04/02 02:58:50;;;;;;;1.00;0.30;;;7.20;99.90;;;;;;5003945;28;20466;-81
2024/04/02 03:01:16;;;;;;;1.50;0.55;;;7.20;99.90;;;;;;5004182;28;20053;-81
2024/04/02 03:03:45;;;;;;;1.02;0.22;;;7.20;99.90;;;;;;5004631;28;20026;-81
2024/04/02 03:06:11;;;;;;;1.08;0.65;;;7.20;99.90;;;;;;5003620;28;20042;-81
2024/04/02 03:08:37;;;;;;;4.28;0.85;;;7.20;99.90;;;;;;5002784;28;20027;-81
2024/04/02 03:11:04;;;;;;;1.27;0.17;;;7.20;99.90;;;;;;5002054;28;20021;-83
2024/04/02 03:13:31;;;;;;;2.45;0.28;;;7.20;99.90;;;;;;5002750;28;20027;-84
2024/04/02 03:15:57;;;;;;;1.88;0.50;;;7.20;99.90;;;;;;5005410;28;20086;-82
2024/04/02 03:18:23;;;;;;;1.83;0.85;;;7.20;99.90;;;;;;5004275;28;20066;-81
2024/04/02 03:20:49;;;;;;;4.60;0.60;;;7.10;99.90;;;;;;5003424;28;20070;-81
2024/04/02 03:23:16;;;;;;;4.53;0.50;;;7.10;99.90;;;;;;5002878;28;20472;-82
2024/04/02 03:25:51;;;;;;;1.23;0.10;;;7.10;99.90;;;;;;5002572;28;20015;-81
2024/04/02 03:28:18;;;;;;;1.55;0.30;;;7.10;99.90;;;;;;5003375;28;20097;-82
2024/04/02 03:30:44;;;;;;;3.28;0.47;;;7.10;99.90;;;;;;5003196;28;20492;-81
2024/04/02 03:33:09;;;;;;;1.75;0.30;;;7.10;99.90;;;;;;5002929;28;20022;-81
2024/04/02 03:35:35;;;;;;;1.50;0.10;;;8.40;99.90;;;;;;5002889;28;20026;-81
2024/04/02 03:38:02;;;;;;;2.08;0.32;;;;;;;;;;5005254;28;20027;-82
2024/04/02 03:40:29;;;;;;;5.32;0.35;;;7.00;99.90;;;;;;5003723;28;20030;-82
2024/04/02 03:42:54;;;;;;;2.88;0.57;;;7.00;99.90;;;;;;5004528;28;20046;-85
2024/04/02 03:45:21;;;;;;;3.13;0.38;;;7.00;99.90;;;;;;5003022;28;20042;-82
2024/04/02 03:47:46;;;;;;;1.05;0.20;;;7.00;99.90;;;;;;5002907;28;20122;-81
2024/04/02 03:50:12;;;;;;;0.75;0.15;;;7.00;99.90;;;;;;5003722;28;20030;-81
2024/04/02 03:52:38;;;;;;;3.42;0.47;;;7.00;99.90;;;;;;5004036;28;20428;-81
2024/04/02 03:55:03;;;;;;;3.35;0.50;;;7.00;99.90;;;;;;5000997;28;20061;-83
2024/04/02 03:57:29;;;;;;;1.33;0.30;;;7.00;99.90;;;;;;5003095;28;20117;-82
2024/04/02 03:59:55;;;;;;;3.72;0.40;;;7.00;99.90;;;;;;5002398;28;20023;-83
2024/04/02 04:02:20;;;;;;;1.77;0.20;;;7.00;99.90;;;;;;5004121;28;20073;-82
2024/04/02 04:04:48;;;;;;;2.78;0.40;;;6.90;99.90;;;;;;5002193;28;20053;-81
2024/04/02 04:07:13;;;;;;;1.95;0.10;;;6.90;99.90;;;;;;5001724;28;20049;-82
2024/04/02 04:09:39;;;;;;;4.03;0.35;;;7.90;99.90;;;;;;5004346;28;20405;-82
2024/04/02 04:12:04;;;;;;;1.27;0.20;;;7.00;99.90;;;;;;5001811;28;20027;-82
2024/04/02 04:14:30;;;;;;;0.85;0.17;;;7.00;99.90;;;;;;5003669;28;20050;-82
2024/04/02 04:16:56;;;;;;;2.95;0.65;;;;;;;;;;5002402;28;20053;-82
2024/04/02 04:19:22;;;;;;;1.73;0.45;;;7.00;99.90;;;;;;5004478;28;20057;-81
2024/04/02 04:21:48;;;;;;;5.07;0.17;;;7.00;99.90;;;;;;5002538;28;20034;-81
2024/04/02 04:24:14;;;;;;;3.65;0.40;;;;;;;;;;5002177;28;20037;-81
2024/04/02 04:26:42;;;;;;;3.85;0.45;;;6.90;99.90;;;;;;5001065;28;20053;-81
2024/04/02 04:29:08;;;;;;;4.72;0.17;;;7.00;99.90;;;;;;5001899;28;20027;-82
2024/04/02 04:31:43;;;;;;;2.72;0.17;;;7.00;99.90;;;;;;5000594;28;20037;-82
2024/04/02 04:34:09;;;;;;;4.05;0.30;;;;;;;;;;5002280;28;20029;-81
2024/04/02 04:36:34;;;;;;;1.63;0.43;;;7.00;99.90;;;;;;5002282;28;20030;-81
2024/04/02 04:39:03;;;;;;;3.80;0.30;;;7.00;99.90;;;;;;5001274;28;20057;-82
2024/04/02 04:41:29;;;;;;;;;;;7.10;99.90;;;;;;5001798;28;20055;-84
2024/04/02 04:43:54;;;;;;;1.45;0.40;;;7.00;99.90;;;;;;5002342;28;19906;-83
2024/04/02 04:46:20;;;;;;;1.83;0.10;;;7.00;99.90;;;;;;5001873;28;20017;-81
2024/04/02 04:48:46;;;;;;;2.20;0.40;;;7.10;99.90;;;;;;4998385;28;20097;-79
2024/04/02 04:51:11;;;;;;;1.48;0.20;;;7.20;99.90;;;;;;4993660;28;20027;-77
2024/04/02 04:53:37;;;;;;;5.00;0.30;;;7.30;99.90;;;;;;4994141;28;20022;-78
2024/04/02 04:56:05;;;;;;;1.40;0.10;;;7.30;99.90;;;;;;4993365;28;20072;-77
2024/04/02 04:58:32;;;;;;;2.60;0.40;;;7.30;99.90;;;;;;4993325;28;20058;-77
2024/04/02 05:00:58;;;;;;;3.17;0.20;;;7.30;99.90;;;;;;4994164;28;20082;-77
2024/04/02 05:03:24;;;;;;;3.50;0.40;;;7.40;99.90;;;;;;4994333;28;20023;-77
2024/04/02 05:05:50;;;;;;;2.17;0.40;;;7.40;99.90;;;;;;4992183;28;20500;-78
2024/04/02 05:08:19;;;;;;;1.92;0.60;;;7.40;99.90;;;;;;4993301;28;20410;-78
2024/04/02 05:10:46;;;;;;;3.80;0.93;;;7.60;99.90;;;;;;4993716;28;20053;-77
2024/04/02 05:13:11;;;;;;;3.03;0.20;;;7.60;99.90;;;;;;4994101;28;20022;-78
2024/04/02 05:15:37;;;;;;;2.95;0.57;;;7.60;99.90;;;;;;4994566;28;20065;-78
2024/04/02 05:18:03;;;;;;;2.35;0.20;;;8.30;99.90;;;;;;4994066;28;20026;-77
2024/04/02 05:20:29;;;;;;;5.95;0.10;;;7.70;99.90;;;;;;4993391;28;20037;-78
2024/04/02 05:22:55;;;;;;;1.77;0.50;;;7.70;99.90;;;;;;4991726;28;20022;-80
2024/04/02 05:25:21;;;;;;;1.20;0.20;;;7.70;99.90;;;;;;4993545;28;20113;-78
2024/04/02 05:27:48;;;;;;;2.28;0.52;;;7.70;99.90;;;;;;4992396;28;20053;-77
2024/04/02 05:30:13;;;;;;;6.38;0.40;;;7.70;99.90;;;;;;4991149;28;20224;-77
2024/04/02 05:32:40;;;;;;;5.40;0.30;;;7.70;99.90;;;;;;4994923;28;20034;-78
2024/04/02 05:35:06;;;;;;;4.38;0.25;;;7.70;99.90;;;;;;4993806;28;20033;-78
2024/04/02 05:37:32;;;;;;;1.15;0.20;;;;;;;;;;4993742;28;20034;-78
2024/04/02 05:39:58;;;;;;;4.68;0.10;;;7.70;99.90;;;;;;4995074;28;20033;-77
2024/04/02 05:42:23;;;;;;;0.43;0.20;;;7.80;99.90;;;;;;4994745;28;20026;-78
2024/04/02 05:44:49;;;;;;;1.70;0.50;;;7.90;99.90;;;;;;4993309;28;20053;-78
2024/04/02 05:47:16;;;;;;;2.72;0.35;;;7.90;99.90;;;;;;4995248;28;20030;-78
2024/04/02 05:49:42;;;;;;;3.08;0.38;;;7.90;99.90;;;;;;4995831;28;20034;-78
2024/04/02 05:52:08;;;;;;;2.10;0.20;;;8.00;99.90;;;;;;4995055;28;20343;-77
2024/04/02 05:54:35;;;;;;;2.95;0.20;;;8.00;99.90;;;;;;4993858;28;20031;-78
2024/04/02 05:57:01;;;;;;;3.22;0.20;;;8.00;99.90;;;;;;4994168;28;20117;-78
2024/04/02 05:59:26;;;;;;;1.55;0.45;;;8.00;99.90;;;;;;4995457;28;20116;-77
2024/04/02 06:01:52;;;;;;;2.47;0.35;;;8.10;99.90;;;;;;4994467;28;20021;-77
2024/04/02 06:04:18;;;;;;;4.47;0.95;;;8.10;99.90;;;;;;4994945;28;20070;-77
2024/04/02 06:06:46;;;;;;;1.77;0.10;;;8.10;99.90;;;;;;4994974;28;20046;-78
2024/04/02 06:09:12;;;;;;;4.95;0.47;;;8.10;99.90;;;;;;4993747;28;20425;-77
2024/04/02 06:11:40;;;;;;;4.47;0.17;;;8.20;99.90;;;;;;4993960;28;20018;-77
2024/04/02 06:14:06;;;;;;;;;;;8.30;99.90;;;;;;4994031;28;20474;-78
2024/04/02 06:16:32;;;;;;;2.05;0.50;;;8.40;99.90;;;;;;4994919;28;19905;-78
2024/04/02 06:18:59;;;;;;;1.95;0.10;;;8.40;99.90;;;;;;4998355;28;20031;-78
2024/04/02 06:21:24;;;;;;;3.70;0.10;;;8.50;99.90;;;;;;4999206;28;20083;-78
2024/04/02 06:23:50;;;;;;;1.40;0.10;;;8.50;99.90;;;;;;4998958;28;20022;-78
2024/04/02 06:26:17;;;;;;;6.18;0.10;;;9.00;99.90;;;;;;5000969;28;20030;-78
2024/04/02 06:28:43;;;;;;;3.42;0.30;;;8.60;99.90;;;;;;4999185;28;20026;-79
2024/04/02 06:31:09;;;;;;;6.95;0.75;;;8.70;99.90;;;;;;4999521;28;20026;-79
2024/04/02 06:33:38;;;;;;;1.65;0.10;;;8.80;99.90;;;;;;5007157;28;20026;-80
2024/04/02 06:36:04;;;;;;;4.80;0.03;;;8.90;99.90;;;;;;5007489;28;20506;-81
2024/04/02 06:38:29;;;;;;;2.28;0.22;;;9.00;99.90;;;;;;5007521;28;20026;-81
2024/04/02 06:40:55;;;;;;;5.25;0.47;;;9.00;99.90;;;;;;5006453;28;20021;-81
2024/04/02 06:43:21;;;;;;;4.95;1.10;;;9.00;99.90;;;;;;5007927;28;20026;-81
2024/04/02 06:45:57;;;;;;;1.00;0.40;;;9.10;99.90;;;;;;5008088;28;20373;-81
2024/04/02 06:48:23;;;;;;;4.05;0.38;;;9.10;99.90;;;;;;5007728;28;20031;-81
2024/04/02 06:50:59;;;;;;;1.58;0.00;;;9.20;99.90;;;;;;5005547;28;20014;-80
2024/04/02 06:53:27;;;;;;;4.15;0.28;;;9.20;99.90;;;;;;5005232;28;20114;-81
2024/04/02 06:55:53;;;;;;;5.90;0.40;;;9.60;99.90;;;;;;5008140;28;20027;-81
2024/04/02 06:58:22;;;;;;;3.63;0.60;;;9.20;99.90;;;;;;5007341;28;20046;-81
2024/04/02 07:00:49;;;;;;;2.40;0.35;;;10.10;99.90;;;;;;5007929;28;20018;-81
2024/04/02 07:03:19;;;;;;;1.45;0.20;;;9.20;99.90;;;;;;5006503;28;20027;-81
2024/04/02 07:05:45;;;;;;;3.45;0.30;;;9.30;99.90;;;;;;5007312;28;20477;-81
2024/04/02 07:08:11;;;;;;;4.35;0.75;;;10.40;99.90;;;;;;5007771;28;20433;-81
2024/04/02 07:10:40;;;;;;;3.88;0.98;;;9.20;99.90;;;;;;5007425;28;20452;-81
2024/04/02 07:13:08;;;;;;;3.67;0.70;;;9.20;99.90;;;;;;5005858;28;20036;-81
2024/04/02 07:15:34;;;;;;;5.05;0.20;;;9.20;99.90;;;;;;5006392;28;20038;-81
2024/04/02 07:18:00;;;;;;;5.63;0.30;;;9.20;99.90;;;;;;5006329;28;20030;-81
2024/04/02 07:20:26;;;;;;;7.72;0.47;;;;;;;;;;5007648;28;20429;-81
2024/04/02 07:22:52;;;;;;;4.47;0.32;;;9.20;99.90;;;;;;5005990;28;20474;-82
2024/04/02 07:25:17;;;;;;;2.83;0.47;;;9.20;99.90;;;;;;5005841;28;20077;-81
2024/04/02 07:27:46;;;;;;;5.63;0.28;;;9.20;99.90;;;;;;5004206;28;20525;-81
2024/04/02 07:30:12;;;;;;;4.75;0.63;;;9.20;99.90;;;;;;5002909;28;20573;-80
2024/04/02 07:32:37;;;;;;;4.43;0.55;;;9.30;99.90;;;;;;5001647;28;20037;-80
2024/04/02 07:35:03;;;;;;;7.32;0.30;;;9.30;99.90;;;;;;5002564;28;20026;-80
2024/04/02 07:37:29;;;;;;;7.35;0.80;;;9.30;99.90;;;;;;5004252;28;20086;-79
2024/04/02 07:39:55;;;;;;;2.50;0.60;;;9.40;99.90;;;;;;5001367;28;20057;-80
2024/04/02 07:42:20;;;;;;;4.53;0.90;;;9.40;99.90;;;;;;5001442;28;20018;-80
2024/04/02 07:44:46;;;;;;;3.85;0.28;;;10.30;99.90;;;;;;5003579;28;20101;-80
2024/04/02 07:47:15;;;;;;;8.43;1.58;;;9.50;99.90;;;;;;5003012;28;20552;-80
2024/04/02 07:49:41;;;;;;;6.22;1.00;;;9.50;99.90;;;;;;5002098;28;20061;-80
2024/04/02 07:52:07;;;;;;;5.82;0.35;;;9.60;99.90;;;;;;5002462;28;20025;-79
2024/04/02 07:54:32;;;;;;;3.80;0.50;;;9.60;99.90;;;;;;5003377;28;20030;-80
2024/04/02 07:56:58;;;;;;;6.00;0.70;;;9.70;99.90;;;;;;5002108;28;20379;-80
2024/04/02 07:59:23;;;;;;;6.88;0.88;;;9.70;99.90;;;;;;5004471;28;20014;-80
2024/04/02 08:01:50;;;;;;;8.13;1.02;;;9.70;99.90;;;;;;5001344;28;20019;-80
2024/04/02 08:04:16;;;;;;;5.07;0.85;;;9.90;99.90;;;;;;5001814;28;20030;-79
2024/04/02 08:06:44;;;;;;;6.40;0.98;;;9.90;99.90;;;;;;5001676;28;20031;-80
2024/04/02 08:09:09;;;;;;;7.25;0.40;;;9.90;99.90;;;;;;5002744;28;20019;-80
2024/04/02 08:11:35;;;;;;;6.57;0.80;;;10.00;99.90;;;;;;5002888;28;20049;-80
2024/04/02 08:14:01;;;;;;;3.47;0.93;;;10.00;99.90;;;;;;4998324;28;20026;-80
2024/04/02 08:16:32;;;;;;;8.90;0.77;;;10.00;99.90;;;;;;5001698;28;20021;-80
2024/04/02 08:18:57;;;;;;;4.68;0.70;;;10.00;99.90;;;;;;5001523;28;20520;-80
2024/04/02 08:21:23;;;;;;;13.70;0.98;;;10.00;99.90;;;;;;5002707;28;20023;-80
2024/04/02 08:23:49;;;;;;;6.95;0.60;;;10.00;99.90;;;;;;5002928;28;20018;-80
2024/04/02 08:26:14;;;;;;;4.57;0.95;;;10.10;99.90;;;;;;5003567;28;20535;-80
2024/04/02 08:28:40;;;;;;;7.72;1.05;;;10.10;99.90;;;;;;5000169;28;20030;-77
2024/04/02 08:31:06;;;;;;;12.55;0.98;;;10.10;99.90;;;;;;4999038;28;20046;-78
2024/04/02 08:33:34;;;;;;;11.32;1.05;;;10.10;99.90;;;;;;4996323;28;20030;-78
2024/04/02 08:35:59;;;;;;;8.35;0.90;;;10.30;99.90;;;;;;4997498;28;20026;-78
2024/04/02 08:38:25;;;;;;;6.50;0.73;;;10.30;99.90;;;;;;4997003;28;20026;-78
2024/04/02 08:40:52;;;;;;;16.73;1.73;;;10.40;99.90;;;;;;4998508;28;20018;-80
2024/04/02 08:43:20;;;;;;;7.57;1.27;;;10.40;99.90;;;;;;4998608;28;20101;-78
2024/04/02 08:45:46;;;;;;;6.23;0.90;;;10.50;99.90;;;;;;4997057;28;20030;-80
2024/04/02 08:48:12;;;;;;;8.30;0.93;;;10.50;99.90;;;;;;5002064;28;20273;-80
2024/04/02 08:50:38;;;;;;;5.90;0.90;;;11.20;99.90;;;;;;5001748;28;20088;-80
2024/04/02 08:53:04;;;;;;;9.10;0.88;;;10.60;99.90;;;;;;5000911;28;20030;-80
2024/04/02 08:55:31;;;;;;;8.43;1.33;;;10.80;99.90;;;;;;5001697;28;20027;-80
2024/04/02 08:57:58;;;;;;;3.95;0.70;;;10.80;99.90;;;;;;5001852;28;20041;-80
2024/04/02 09:00:23;;;;;;;9.95;2.03;;;11.00;99.90;;;;;;4998641;28;20034;-78
2024/04/02 09:02:52;;;;;;;4.10;0.80;;;11.20;99.90;;;;;;4995120;28;20397;-78
2024/04/02 09:05:18;;;;;;;6.00;0.75;;;11.40;99.90;;;;;;4995156;28;20024;-78
2024/04/02 09:07:45;;;;;;;6.40;0.50;;;11.50;99.90;;;;;;4997036;28;20485;-78
2024/04/02 09:10:10;;;;;;;6.82;0.47;;;11.60;99.90;;;;;;4996895;28;20065;-78
2024/04/02 09:12:39;;;;;;;5.53;0.70;;;11.70;99.90;;;;;;4996398;28;20053;-78
2024/04/02 09:15:05;;;;;;;;;;;11.70;99.90;;;;;;4997339;28;20027;-78
2024/04/02 09:17:31;;;;;;;4.45;0.70;;;11.80;99.90;;;;;;4996565;28;19910;-78
2024/04/02 09:19:57;;;;;;;3.85;0.13;;;11.90;99.90;;;;;;4996471;28;20022;-80
2024/04/02 09:22:23;;;;;;;5.13;0.25;;;11.80;99.90;;;;;;4999662;28;20015;-78
2024/04/02 09:24:49;;;;;;;4.93;0.10;;;11.80;99.90;;;;;;4996131;28;20022;-79
2024/04/02 09:27:16;;;;;;;4.85;0.38;;;11.70;99.90;;;;;;4996737;28;20076;-79
2024/04/02 09:29:41;;;;;;;4.07;0.10;;;11.60;99.90;;;;;;4998206;28;20023;-80
2024/04/02 09:32:07;;;;;;;4.95;0.10;;;11.40;99.90;;;;;;5000198;28;20053;-80
2024/04/02 09:34:35;;;;;;;2.53;0.10;;;11.50;99.90;;;;;;4998595;28;20077;-78
2024/04/02 09:37:23;;;;;;;2.70;0.30;;;11.50;99.90;;;;;;4996141;28;20030;-78
2024/04/02 09:39:51;;;;;;;5.90;0.50;;;11.40;99.90;;;;;;4997058;28;20031;-79
2024/04/02 09:42:18;;;;;;;7.80;0.70;;;11.50;99.90;;;;;;4996898;28;20053;-78
2024/04/02 09:44:47;;;;;;;4.72;0.30;;;11.60;99.90;;;;;;4994895;28;20064;-79
2024/04/02 09:47:18;;;;;;;5.63;0.20;;;11.60;99.90;;;;;;4996101;28;20513;-78
2024/04/02 09:49:46;;;;;;;8.90;0.80;;;11.70;99.90;;;;;;4995240;28;20027;-80
2024/04/02 09:52:13;;;;;;;3.38;0.25;;;11.70;99.90;;;;;;4994237;28;20125;-79
2024/04/02 09:54:40;;;;;;;5.57;0.50;;;11.50;99.90;;;;;;4994251;28;20481;-78
2024/04/02 09:57:10;;;;;;;6.93;1.00;;;11.40;99.90;;;;;;4995466;28;20029;-78
2024/04/02 09:59:38;;;;;;;4.47;0.60;;;11.20;99.90;;;;;;4994578;28;20019;-79
2024/04/02 10:02:07;;;;;;;4.53;0.60;;;11.00;99.90;;;;;;4994330;28;20437;-78
2024/04/02 10:04:33;;;;;;;;;;;11.00;99.90;;;;;;4996076;28;20034;-78
2024/04/02 10:07:01;;;;;;;6.13;1.45;;;10.90;99.90;;;;;;4994979;28;19914;-78
2024/04/02 10:09:26;;;;;;;10.70;1.05;;;10.80;99.90;;;;;;4994021;28;20034;-78
2024/04/02 10:11:54;;;;;;;8.73;1.40;;;10.90;99.90;;;;;;4994487;28;20401;-79
2024/04/02 10:14:20;;;;;;;4.38;1.23;;;10.90;99.90;;;;;;4994360;28;20031;-79
2024/04/02 10:16:50;;;;;;;6.47;1.50;;;10.90;99.90;;;;;;4994567;28;20400;-79
2024/04/02 10:19:22;;;;;;;6.60;0.90;;;11.00;99.90;;;;;;4994719;28;20026;-78
2024/04/02 10:21:49;;;;;;;2.70;0.93;;;10.90;99.90;;;;;;4994460;28;20340;-78
2024/04/02 10:24:16;;;;;;;5.43;1.38;;;10.90;99.90;;;;;;4993865;28;20401;-76
2024/04/02 10:26:45;;;;;;;3.85;0.52;;;10.70;99.90;;;;;;4992599;28;20019;-76
2024/04/02 10:29:11;;;;;;;3.47;0.55;;;10.60;99.90;;;;;;4993570;28;20022;-76
2024/04/02 10:31:40;;;;;;;6.47;0.80;;;10.60;99.90;;;;;;4992392;28;20474;-75
2024/04/02 10:34:11;;;;;;;3.30;0.77;;;10.50;99.90;;;;;;4992404;28;20029;-76
2024/04/02 10:36:37;;;;;;;4.60;0.73;;;10.50;99.90;;;;;;4992298;28;20114;-76
2024/04/02 10:39:04;;;;;;;4.38;0.57;;;10.60;99.90;;;;;;4992175;28;20050;-76
2024/04/02 10:41:33;;;;;;;4.93;1.10;;;10.70;99.90;;;;;;4994023;28;20022;-75
2024/04/02 10:43:59;;;;;;;7.60;0.88;;;10.80;99.90;;;;;;4993869;28;20022;-75
2024/04/02 10:46:26;;;;;;;3.30;0.88;;;10.70;99.90;;;;;;4993458;28;20323;-75
2024/04/02 10:48:59;;;;;;;3.13;1.42;;;10.70;99.90;;;;;;4994324;28;20026;-78
2024/04/02 10:51:26;;;;;;;2.13;0.70;;;10.70;99.90;;;;;;4993556;28;20030;-76
2024/04/02 10:53:56;;;;;;;6.07;1.27;;;10.70;99.90;;;;;;4993521;28;20054;-75
2024/04/02 10:56:27;;;;;;;3.83;1.13;;;10.70;99.90;;;;;;4993346;28;20034;-76
2024/04/02 10:58:56;;;;;;;5.65;0.90;;;10.70;99.90;;;;;;4992605;28;20027;-76
2024/04/02 11:01:22;;;;;;;6.15;0.73;;;10.70;99.90;;;;;;4993375;28;20058;-76
2024/04/02 11:03:52;;;;;;;6.75;0.88;;;10.70;99.90;;;;;;4994903;28;20030;-77
2024/04/02 11:06:18;;;;;;;2.38;0.95;;;10.70;99.90;;;;;;4996826;28;20039;-76
2024/04/02 11:08:44;;;;;;;4.30;1.23;;;10.80;99.90;;;;;;4995833;28;20077;-77
2024/04/02 11:11:24;;;;;;;5.13;0.55;;;10.70;99.90;;;;;;4997281;28;20100;-77
2024/04/02 11:13:51;;;;;;;4.97;1.45;;;10.80;99.90;;;;;;4995379;28;20057;-76
2024/04/02 11:16:17;;;;;;;4.05;1.75;;;10.80;99.90;;;;;;4995319;28;20023;-77
2024/04/02 11:18:44;;;;;;;4.93;1.00;;;10.80;99.90;;;;;;4996598;28;20054;-77
2024/04/02 11:21:14;;;;;;;6.38;1.90;;;10.80;99.90;;;;;;4996718;28;20026;-77
2024/04/02 11:26:24;;;;;;;5.05;0.95;;;10.90;99.90;;;;;;4997001;28;20104;-76
2024/04/02 11:28:50;;;;;;;7.78;1.38;;;11.00;99.90;;;;;;4996569;28;20044;-76
2024/04/02 11:31:15;;;;;;;6.13;0.80;;;11.10;99.90;;;;;;4995153;28;20025;-76
2024/04/02 11:33:41;;;;;;;3.70;1.00;;;11.20;99.90;;;;;;4995115;28;20113;-76
2024/04/02 11:36:09;;;;;;;3.03;0.95;;;11.40;99.90;;;;;;4996303;28;20037;-76
2024/04/02 11:38:38;;;;;;;7.35;1.25;;;11.40;99.90;;;;;;4996173;28;20027;-77
2024/04/02 11:41:05;;;;;;;;;;;11.50;99.90;;;;;;4996624;28;20097;-76
2024/04/02 11:43:32;;;;;;;2.67;0.73;;;11.60;99.90;;;;;;4996149;28;19906;-77
2024/04/02 11:45:58;;;;;;;5.10;0.90;;;11.60;99.90;;;;;;4996248;28;20031;-77
2024/04/02 11:48:24;;;;;;;4.32;1.10;;;11.60;99.90;;;;;;4995511;28;20037;-76
2024/04/02 11:50:50;;;;;;;2.40;0.47;;;11.50;99.90;;;;;;4995990;28;20030;-76
2024/04/02 11:53:15;;;;;;;8.48;0.90;;;11.60;99.90;;;;;;4996453;28;20026;-76
2024/04/02 11:55:42;;;;;;;5.43;0.93;;;11.70;99.90;;;;;;4996260;28;20065;-76
2024/04/02 12:00:53;;;;;;;4.82;0.60;;;11.90;99.90;;;;;;4997206;28;20565;-77
2024/04/02 12:03:19;;;;;;;4.93;0.55;;;12.30;99.90;;;;;;4995070;28;20053;-77
2024/04/02 12:05:44;;;;;;;2.80;0.60;;;12.90;99.90;;;;;;4994638;28;20065;-76
2024/04/02 12:08:10;;;;;;;5.68;0.20;;;12.90;99.90;;;;;;4994743;28;20019;-76
2024/04/02 12:10:36;;;;;;;4.38;0.40;;;13.60;99.90;;;;;;4994551;28;20034;-76
2024/04/02 12:13:03;;;;;;;4.40;0.60;;;13.90;99.90;;;;;;4994405;28;20023;-76
2024/04/02 12:15:29;;;;;;;4.75;0.88;;;14.00;99.90;;;;;;4995416;28;20022;-77
2024/04/02 12:17:54;;;;;;;4.05;0.17;;;13.90;99.90;;;;;;4994456;28;20033;-76
2024/04/02 12:20:21;;;;;;;2.95;0.45;;;13.60;99.90;;;;;;4995676;28;20019;-77
2024/04/02 12:22:46;;;;;;;1.85;0.10;;;13.40;99.90;;;;;;4994525;28;20085;-77
2024/04/02 12:25:12;;;;;;;5.45;0.43;;;13.20;99.90;;;;;;4994468;28;20394;-77
2024/04/02 12:27:37;;;;;;;5.75;0.55;;;13.20;99.90;;;;;;4994337;28;20072;-77
2024/04/02 12:30:04;;;;;;;7.68;0.85;;;13.00;99.90;;;;;;4996158;28;20086;-77
2024/04/02 12:32:30;;;;;;;3.90;1.17;;;13.20;99.90;;;;;;4995824;28;20018;-76
2024/04/02 12:34:55;;;;;;;3.03;0.47;;;13.20;99.90;;;;;;4995156;28;20535;-78
2024/04/02 12:37:21;;;;;;;3.17;0.20;;;13.00;99.90;;;;;;4996337;28;20034;-77
2024/04/02 12:39:47;;;;;;;2.10;0.10;;;12.80;99.90;;;;;;4997363;28;20394;-78
2024/04/02 12:42:16;;;;;;;2.08;0.13;;;12.60;99.90;;;;;;4997421;28;20436;-78
2024/04/02 12:44:42;;;;;;;4.35;0.63;;;12.50;99.90;;;;;;4996502;28;20114;-78
2024/04/02 12:47:08;;;;;;;5.85;0.63;;;12.50;99.90;;;;;;4997064;28;20032;-78
2024/04/02 12:49:38;;;;;;;3.83;0.15;;;12.30;99.90;;;;;;4996388;28;20026;-78
2024/04/02 12:52:04;;;;;;;4.07;0.30;;;12.20;99.90;;;;;;4996607;28;20371;-78
2024/04/02 12:54:30;;;;;;;2.90;0.85;;;12.10;99.90;;;;;;4996180;28;20448;-78
2024/04/02 12:56:56;;;;;;;4.78;0.17;;;12.00;99.90;;;;;;4996918;28;20026;-78